Time;durP1;ratioP1;P1;durP2;ratioP2;P2;SDS_P1;SDS_P2;PMS_P1;PMS_P2;Temp;Humidity;BMP_temperature;BMP_pressure;BME280_temperature;BME280_humidity;BME280_pressure;Samples;Min_cycle;Max_cycle;Signal;HPM_P1;HPM_P2
2022/11/23 00:01:17;;;;;;;7.62;3.00;;;;;;;1.04;68.48;100062.38;1700391;83;21054;-60
2022/11/23 00:03:45;;;;;;;9.95;3.65;;;;;;;1.05;68.62;100067.92;1704413;83;21581;-60
2022/11/23 00:06:12;;;;;;;8.03;3.33;;;;;;;1.03;68.79;100073.64;1731092;81;21275;-60
2022/11/23 00:08:39;;;;;;;8.70;2.65;;;;;;;1.04;68.88;100076.62;1738735;81;21120;-60
2022/11/23 00:11:06;;;;;;;9.08;3.55;;;;;;;1.02;68.92;100075.83;1746783;81;21448;-61
2022/11/23 00:13:38;;;;;;;8.33;3.25;;;;;;;1.03;68.95;100070.21;1748586;81;21161;-60
2022/11/23 00:16:09;;;;;;;9.30;3.45;;;;;;;1.04;69.06;100071.44;1729848;81;21066;-61
2022/11/23 00:18:37;;;;;;;9.50;3.62;;;;;;;1.05;69.09;100070.52;1700881;82;21047;-60
2022/11/23 00:21:12;;;;;;;7.65;3.10;;;;;;;1.07;69.12;100063.50;1725613;81;21094;-60
2022/11/23 00:23:38;;;;;;;8.85;3.92;;;;;;;1.09;69.07;100068.62;1738748;81;21103;-61
2022/11/23 00:26:05;;;;;;;9.53;3.87;;;;;;;1.13;69.14;100071.91;1710915;83;21047;-60
2022/11/23 00:28:33;;;;;;;8.55;4.25;;;;;;;1.16;69.12;100073.06;1701848;83;21158;-60
2022/11/23 00:31:00;;;;;;;10.85;4.42;;;;;;;1.17;68.90;100069.58;1737425;81;21596;-61
2022/11/23 00:33:27;;;;;;;8.63;3.10;;;;;;;1.17;69.04;100066.98;1723844;82;21050;-61
2022/11/23 00:36:03;;;;;;;8.85;3.40;;;;;;;1.20;69.12;100074.16;1715930;81;21386;-60
2022/11/23 00:38:31;;;;;;;6.87;3.33;;;;;;;1.27;69.13;100071.66;1707144;81;21121;-61
2022/11/23 00:41:05;;;;;;;9.10;4.05;;;;;;;1.32;68.94;100077.93;1706424;82;21214;-61
2022/11/23 00:43:33;;;;;;;;;;;;;;;1.30;68.77;100066.80;1738988;81;21232;-61
2022/11/23 00:46:10;;;;;;;6.42;2.55;;;;;;;1.26;68.72;100075.18;1702251;83;20211;-60
2022/11/23 00:48:37;;;;;;;8.33;3.15;;;;;;;1.24;68.90;100069.66;1711879;82;21124;-60
2022/11/23 00:51:06;;;;;;;8.90;3.40;;;;;;;1.26;68.94;100073.88;1714159;82;21054;-60
2022/11/23 00:53:33;;;;;;;7.53;3.37;;;;;;;1.28;69.13;100077.70;1705689;82;21065;-60
2022/11/23 00:56:01;;;;;;;13.53;4.15;;;;;;;1.32;68.97;100073.21;1708388;82;21247;-60
2022/11/23 00:58:28;;;;;;;8.50;4.33;;;;;;;1.33;69.11;100075.73;1698964;82;21081;-60
2022/11/23 01:01:10;;;;;;;9.20;4.08;;;;;;;1.36;68.97;100076.03;1718615;82;21094;-60
2022/11/23 01:03:40;;;;;;;8.80;3.70;;;;;;;1.34;68.88;100079.16;1704416;82;21031;-60
2022/11/23 01:06:17;;;;;;;9.65;4.05;;;;;;;1.35;68.91;100083.45;1714285;81;21016;-59
2022/11/23 01:09:01;;;;;;;9.50;3.30;;;;;;;1.34;68.88;100081.28;1674004;82;21254;-60
2022/11/23 01:11:30;;;;;;;10.80;4.05;;;;;;;1.34;68.94;100083.05;1731201;81;21157;-60
2022/11/23 01:13:58;;;;;;;9.38;3.65;;;;;;;1.33;69.01;100083.52;1743470;81;21165;-60
2022/11/23 01:16:28;;;;;;;11.05;4.95;;;;;;;1.32;68.97;100083.11;1697209;83;21082;-59
2022/11/23 01:18:57;;;;;;;9.95;4.08;;;;;;;1.30;69.07;100077.17;1697656;82;21157;-59
2022/11/23 01:21:24;;;;;;;8.30;3.12;;;;;;;1.26;69.05;100080.80;1694746;82;21255;-60
2022/11/23 01:23:51;;;;;;;9.78;3.85;;;;;;;1.26;69.04;100085.55;1698099;82;21031;-60
2022/11/23 01:26:18;;;;;;;8.25;3.92;;;;;;;1.28;69.21;100101.03;1697322;82;21077;-60
2022/11/23 01:28:45;;;;;;;9.70;4.05;;;;;;;1.28;69.30;100096.68;1696688;82;21071;-60
2022/11/23 01:31:17;;;;;;;7.83;4.33;;;;;;;1.31;69.35;100102.16;1701076;82;21204;-61
2022/11/23 01:33:45;;;;;;;7.20;3.42;;;;;;;1.33;69.32;100102.95;1699145;83;21274;-60
2022/11/23 01:36:16;;;;;;;11.40;4.40;;;;;;;1.30;69.32;100103.92;1694835;82;21094;-61
2022/11/23 01:38:46;;;;;;;10.98;5.47;;;;;;;1.32;69.49;100112.92;1700652;82;21088;-60
2022/11/23 01:41:16;;;;;;;9.68;4.92;;;;;;;1.30;69.51;100110.87;1696093;83;21048;-61
2022/11/23 01:43:45;;;;;;;12.05;5.70;;;;;;;1.34;69.52;100100.73;1690410;83;21082;-61
2022/11/23 01:46:12;;;;;;;10.65;5.25;;;;;;;1.35;69.46;100106.31;1693113;83;21273;-59
2022/11/23 01:48:46;;;;;;;10.50;4.45;;;;;;;1.34;69.40;100104.61;1703423;82;21560;-60
2022/11/23 01:51:33;;;;;;;10.82;5.20;;;;;;;1.33;69.48;100113.76;1709413;82;21074;-60
2022/11/23 01:54:08;;;;;;;10.25;4.67;;;;;;;1.36;69.44;100109.30;1721552;81;21129;-61
2022/11/23 01:56:38;;;;;;;;;;;;;;;1.35;69.47;100111.96;1733454;81;21685;-60
2022/11/23 01:59:08;;;;;;;8.20;3.15;;;;;;;1.40;69.29;100108.70;1721708;81;21275;-60
2022/11/23 02:01:36;;;;;;;8.40;3.47;;;;;;;1.44;69.16;100111.05;1691435;82;22095;-61
2022/11/23 02:04:04;;;;;;;43.83;17.25;;;;;;;1.51;69.12;100113.38;1712564;82;21595;-60
2022/11/23 02:06:32;;;;;;;44.15;17.90;;;;;;;1.53;68.96;100113.70;1700702;82;21086;-60
2022/11/23 02:09:00;;;;;;;45.45;20.45;;;;;;;1.49;68.87;100119.92;1703979;82;21092;-60
2022/11/23 02:11:27;;;;;;;28.77;12.43;;;;;;;1.48;68.98;100115.67;1696526;83;21272;-61
2022/11/23 02:13:56;;;;;;;17.45;7.35;;;;;;;1.47;69.07;100114.80;1711165;83;21154;-61
2022/11/23 02:16:22;;;;;;;12.53;6.53;;;;;;;1.51;68.83;100119.39;1703569;83;21098;-60
2022/11/23 02:18:50;;;;;;;17.48;6.12;;;;;;;1.48;69.06;100123.45;1709072;82;21025;-61
2022/11/23 02:21:20;;;;;;;71.35;30.80;;;;;;;1.51;68.97;100123.28;1693490;83;21515;-61
2022/11/23 02:23:53;;;;;;;65.65;25.48;;;;;;;1.53;69.00;100125.37;1698918;82;21959;-60
2022/11/23 02:26:28;;;;;;;47.70;21.00;;;;;;;1.55;68.88;100122.23;1696733;83;21587;-60
2022/11/23 02:29:15;;;;;;;64.07;26.00;;;;;;;1.59;68.79;100124.23;1696653;83;21049;-60
2022/11/23 02:31:42;;;;;;;47.33;19.62;;;;;;;1.58;68.57;100132.47;1687111;82;21137;-60
2022/11/23 02:34:08;;;;;;;32.30;14.28;;;;;;;1.55;68.47;100129.19;1698628;82;21544;-61
2022/11/23 02:36:40;;;;;;;28.65;13.43;;;;;;;1.52;68.56;100120.25;1715197;82;21520;-61
2022/11/23 02:39:15;;;;;;;31.77;14.98;;;;;;;1.53;68.74;100118.02;1711922;82;21079;-60
2022/11/23 02:41:50;;;;;;;36.35;16.65;;;;;;;1.57;68.72;100115.22;1704062;82;21110;-60
2022/11/23 02:45:01;;;;;;;35.58;14.73;;;;;;;1.60;68.90;100120.27;1705547;82;21558;-61
2022/11/23 02:47:29;;;;;;;26.75;12.88;;;;;;;1.64;68.76;100123.09;1697951;82;21036;-61
2022/11/23 02:49:56;;;;;;;26.90;13.78;;;;;;;1.64;68.49;100130.03;1703267;83;21169;-61
2022/11/23 02:52:22;;;;;;;24.72;11.63;;;;;;;1.58;68.38;100132.47;1705371;82;21083;-61
2022/11/23 02:54:49;;;;;;;20.20;9.15;;;;;;;1.57;68.43;100141.16;1701898;83;21484;-59
2022/11/23 02:57:18;;;;;;;15.45;8.13;;;;;;;1.55;68.32;100146.05;1734963;81;21059;-59
2022/11/23 02:59:45;;;;;;;19.42;8.78;;;;;;;1.50;68.25;100144.95;1704970;82;21697;-59
2022/11/23 03:02:12;;;;;;;18.42;10.68;;;;;;;1.41;68.46;100143.63;1695419;83;21247;-60
2022/11/23 03:04:41;;;;;;;14.30;7.65;;;;;;;1.38;68.72;100139.02;1693728;82;21083;-61
2022/11/23 03:07:08;;;;;;;14.07;7.87;;;;;;;1.38;68.93;100141.17;1689832;82;21583;-60
2022/11/23 03:09:36;;;;;;;10.98;5.35;;;;;;;1.40;68.77;100144.53;1715196;82;21070;-60
2022/11/23 03:12:06;;;;;;;13.45;6.12;;;;;;;1.39;68.79;100145.89;1707329;81;21086;-60
2022/11/23 03:14:37;;;;;;;14.80;6.92;;;;;;;1.35;68.95;100150.84;1698203;82;21097;-61
2022/11/23 03:17:04;;;;;;;13.10;6.10;;;;;;;1.33;69.14;100144.44;1722072;82;21536;-61
2022/11/23 03:19:33;;;;;;;11.93;6.80;;;;;;;1.35;69.13;100137.88;1735200;81;21106;-60
2022/11/23 03:22:01;;;;;;;16.17;7.50;;;;;;;1.33;69.25;100147.45;1718632;81;21050;-60
2022/11/23 03:24:29;;;;;;;17.48;7.87;;;;;;;1.32;69.21;100145.33;1723333;82;21019;-60
2022/11/23 03:26:57;;;;;;;14.33;7.92;;;;;;;1.29;69.41;100145.03;1712063;83;22224;-60
2022/11/23 03:29:25;;;;;;;11.60;6.15;;;;;;;1.35;69.48;100143.07;1723423;81;21066;-60
2022/11/23 03:31:53;;;;;;;13.25;7.55;;;;;;;1.37;69.51;100141.24;1702647;82;21579;-61
2022/11/23 03:34:22;;;;;;;10.53;4.92;;;;;;;1.40;69.45;100134.16;1702078;82;21029;-61
2022/11/23 03:36:49;;;;;;;11.93;5.78;;;;;;;1.42;69.53;100134.92;1708488;82;21073;-60
2022/11/23 03:39:16;;;;;;;10.25;4.67;;;;;;;1.44;69.59;100137.45;1706004;82;21261;-60
2022/11/23 03:42:02;;;;;;;12.98;5.42;;;;;;;1.54;69.50;100140.45;1700389;82;21065;-61
2022/11/23 03:44:32;;;;;;;9.25;4.42;;;;;;;1.58;69.33;100139.39;1706914;82;21126;-60
2022/11/23 03:47:00;;;;;;;11.95;5.37;;;;;;;1.55;69.27;100136.97;1696143;82;21098;-60
2022/11/23 03:49:27;;;;;;;9.78;4.62;;;;;;;1.55;69.11;100139.09;1712134;82;21065;-60
2022/11/23 03:51:54;;;;;;;13.32;5.30;;;;;;;1.57;69.10;100136.44;1696729;82;21362;-61
2022/11/23 03:54:22;;;;;;;11.55;5.37;;;;;;;1.59;69.15;100132.84;1704890;82;21046;-61
2022/11/23 03:56:48;;;;;;;9.43;4.65;;;;;;;1.61;69.16;100138.79;1712952;81;21060;-61
2022/11/23 03:59:15;;;;;;;13.20;6.58;;;;;;;1.59;69.20;100135.43;1702916;82;21113;-60
2022/11/23 04:01:42;;;;;;;11.22;5.75;;;;;;;1.59;69.16;100139.32;1712827;82;21053;-61
2022/11/23 04:04:10;;;;;;;12.43;5.75;;;;;;;1.62;69.24;100149.56;1737617;81;21228;-61
2022/11/23 04:06:57;;;;;;;11.50;5.47;;;;;;;1.63;68.84;100147.80;1734896;81;21587;-61
2022/11/23 04:09:25;;;;;;;10.98;5.72;;;;;;;1.64;68.70;100139.12;1740015;81;21067;-61
2022/11/23 04:11:57;;;;;;;12.80;5.85;;;;;;;1.64;68.81;100137.35;1706950;82;21554;-60
2022/11/23 04:14:24;;;;;;;11.08;4.60;;;;;;;1.73;68.51;100133.95;1698617;82;21327;-60
2022/11/23 04:16:50;;;;;;;11.03;4.85;;;;;;;1.74;68.40;100136.94;1698085;83;22404;-60
2022/11/23 04:19:18;;;;;;;11.55;5.15;;;;;;;1.75;68.02;100137.30;1711218;82;21012;-61
2022/11/23 04:21:44;;;;;;;11.03;4.75;;;;;;;1.67;67.70;100137.22;1697624;82;21083;-61
2022/11/23 04:24:13;;;;;;;11.10;4.50;;;;;;;1.60;67.56;100150.56;1693943;83;21082;-61
2022/11/23 04:26:40;;;;;;;10.20;5.10;;;;;;;1.53;67.67;100156.92;1692403;81;21079;-61
2022/11/23 04:29:08;;;;;;;10.08;5.08;;;;;;;1.49;67.69;100161.41;1695086;83;21299;-60
2022/11/23 04:31:36;;;;;;;10.15;5.00;;;;;;;1.46;67.81;100162.41;1691771;83;21129;-60
2022/11/23 04:34:04;;;;;;;10.85;4.95;;;;;;;1.45;67.93;100157.29;1702379;82;21055;-60
2022/11/23 04:36:32;;;;;;;11.30;4.58;;;;;;;1.43;68.03;100161.68;1704036;83;21142;-60
2022/11/23 04:39:00;;;;;;;10.53;4.60;;;;;;;1.45;68.17;100161.18;1706193;83;21011;-60
2022/11/23 04:41:28;;;;;;;12.40;5.05;;;;;;;1.45;68.18;100162.48;1700531;83;22901;-60
2022/11/23 04:43:55;;;;;;;11.88;5.12;;;;;;;1.42;68.15;100161.31;1697135;82;21060;-60
2022/11/23 04:46:22;;;;;;;12.25;5.62;;;;;;;1.38;68.28;100163.64;1697551;83;20996;-61
2022/11/23 04:48:49;;;;;;;10.18;3.90;;;;;;;1.36;68.28;100166.77;1697332;83;21124;-61
2022/11/23 04:51:16;;;;;;;7.83;3.52;;;;;;;1.34;68.57;100169.89;1697699;82;21025;-60
2022/11/23 04:53:43;;;;;;;10.15;4.37;;;;;;;1.38;68.60;100172.72;1718603;81;21246;-60
2022/11/23 04:56:09;;;;;;;8.85;4.35;;;;;;;1.38;68.58;100170.13;1728019;81;21061;-60
2022/11/23 04:58:39;;;;;;;11.50;4.47;;;;;;;1.37;68.50;100166.70;1712360;82;21515;-61
2022/11/23 05:01:06;;;;;;;10.40;4.53;;;;;;;1.37;68.46;100168.00;1711442;83;21060;-61
2022/11/23 05:03:35;;;;;;;9.18;4.60;;;;;;;1.34;68.44;100168.13;1699972;83;21063;-62
2022/11/23 05:06:06;;;;;;;10.88;4.00;;;;;;;1.27;68.39;100164.97;1730325;81;22051;-59
2022/11/23 05:08:35;;;;;;;11.97;4.30;;;;;;;1.24;68.24;100163.81;1736723;81;21038;-60
2022/11/23 05:11:04;;;;;;;11.22;5.87;;;;;;;1.19;68.15;100176.13;1709934;81;20978;-60
2022/11/23 05:13:31;;;;;;;9.75;3.85;;;;;;;1.15;68.02;100176.36;1727997;81;21198;-60
2022/11/23 05:15:59;;;;;;;9.48;4.28;;;;;;;1.09;68.28;100169.25;1707569;83;21550;-60
2022/11/23 05:18:28;;;;;;;5.97;3.10;;;;;;;1.13;68.37;100178.16;1700384;83;21864;-60
2022/11/23 05:20:54;;;;;;;9.10;3.08;;;;;;;1.16;68.66;100176.73;1701836;83;21033;-60
2022/11/23 05:23:21;;;;;;;8.33;3.55;;;;;;;1.18;68.52;100179.66;1705381;82;21013;-60
2022/11/23 05:25:50;;;;;;;7.30;3.55;;;;;;;1.19;68.52;100185.20;1688498;83;21081;-62
2022/11/23 05:28:19;;;;;;;8.78;3.85;;;;;;;1.21;68.42;100175.64;1709099;83;21087;-61
2022/11/23 05:30:45;;;;;;;9.15;3.52;;;;;;;1.20;68.43;100177.83;1696707;82;22993;-60
2022/11/23 05:33:12;;;;;;;7.08;2.98;;;;;;;1.21;68.29;100180.82;1698695;83;21078;-60
2022/11/23 05:35:39;;;;;;;7.78;3.45;;;;;;;1.19;68.22;100185.20;1721774;81;21216;-61
2022/11/23 05:38:06;;;;;;;7.08;3.17;;;;;;;1.21;68.32;100195.51;1707207;81;21126;-60
2022/11/23 05:40:33;;;;;;;7.65;3.35;;;;;;;1.20;68.18;100192.09;1695107;82;21091;-60
2022/11/23 05:43:01;;;;;;;7.30;3.35;;;;;;;1.21;68.14;100196.37;1709044;81;21216;-61
2022/11/23 05:45:28;;;;;;;7.70;2.87;;;;;;;1.17;68.15;100199.98;1697774;83;21257;-61
2022/11/23 05:47:57;;;;;;;9.55;3.25;;;;;;;1.16;68.24;100200.92;1720477;81;21677;-60
2022/11/23 05:50:29;;;;;;;6.42;2.70;;;;;;;1.15;68.16;100209.59;1714780;82;21096;-61
2022/11/23 05:53:06;;;;;;;8.30;3.37;;;;;;;1.15;68.06;100209.59;1689551;82;21053;-60
2022/11/23 05:55:33;;;;;;;7.33;3.40;;;;;;;1.14;68.09;100207.89;1702000;82;22227;-60
2022/11/23 05:58:00;;;;;;;8.85;3.45;;;;;;;1.17;68.17;100210.82;1705672;82;21542;-60
2022/11/23 06:00:27;;;;;;;7.65;3.50;;;;;;;1.23;68.11;100217.88;1678720;83;21058;-60
2022/11/23 06:03:00;;;;;;;7.42;3.60;;;;;;;1.24;68.07;100211.77;1691376;82;21075;-60
2022/11/23 06:05:28;;;;;;;7.03;3.35;;;;;;;1.24;67.87;100216.95;1699629;82;21181;-61
2022/11/23 06:07:55;;;;;;;7.62;2.85;;;;;;;1.27;67.79;100224.59;1710811;82;21715;-60
2022/11/23 06:10:24;;;;;;;6.33;2.65;;;;;;;1.28;67.57;100230.64;1707307;82;21019;-60
2022/11/23 06:12:51;;;;;;;9.30;2.90;;;;;;;1.24;67.55;100224.72;1707421;82;21071;-60
2022/11/23 06:15:18;;;;;;;8.25;3.62;;;;;;;1.25;67.36;100232.90;1707094;82;21484;-60
2022/11/23 06:17:47;;;;;;;8.55;3.67;;;;;;;1.20;67.18;100230.96;1698747;82;21077;-61
2022/11/23 06:20:17;;;;;;;7.62;2.62;;;;;;;1.19;67.24;100229.27;1708411;82;21019;-61
2022/11/23 06:22:52;;;;;;;6.53;2.65;;;;;;;1.17;67.18;100234.15;1703995;82;21125;-61
2022/11/23 06:25:20;;;;;;;8.48;3.40;;;;;;;1.18;67.03;100239.27;1700540;82;21070;-60
2022/11/23 06:29:05;;;;;;;7.20;2.83;;;;;;;1.00;67.58;100236.17;1761593;79;22337;-59
2022/11/23 06:31:32;;;;;;;9.30;3.92;;;;;;;1.06;67.31;100245.83;1746145;81;20971;-60
2022/11/23 06:34:00;;;;;;;7.17;2.92;;;;;;;1.05;67.38;100245.88;1737127;81;21112;-59
2022/11/23 06:36:28;;;;;;;7.45;3.55;;;;;;;0.99;67.45;100252.61;1748508;81;21697;-59
2022/11/23 06:38:55;;;;;;;8.20;4.03;;;;;;;0.91;67.30;100248.61;1741309;81;21057;-59
2022/11/23 06:41:23;;;;;;;9.98;4.42;;;;;;;0.91;67.63;100247.77;1736783;80;21021;-60
2022/11/23 06:43:50;;;;;;;8.30;3.10;;;;;;;0.96;67.81;100242.38;1737721;80;21042;-59
2022/11/23 06:46:18;;;;;;;7.70;3.00;;;;;;;1.05;67.72;100254.95;1743384;81;21241;-59
2022/11/23 06:48:46;;;;;;;7.97;4.10;;;;;;;1.04;67.33;100248.08;1748076;81;21046;-59
2022/11/23 06:51:14;;;;;;;7.67;3.25;;;;;;;1.02;67.52;100246.84;1752217;80;20975;-59
2022/11/23 06:53:40;;;;;;;7.60;3.02;;;;;;;1.05;67.61;100252.36;1743426;81;21030;-59
2022/11/23 06:56:08;;;;;;;7.37;2.52;;;;;;;1.02;67.41;100246.84;1728438;81;21113;-59
2022/11/23 06:58:35;;;;;;;9.10;4.17;;;;;;;0.98;67.63;100240.59;1736205;80;21314;-59
2022/11/23 07:01:07;;;;;;;7.60;2.92;;;;;;;1.00;67.96;100237.47;1736615;80;21360;-60
2022/11/23 07:03:45;;;;;;;8.90;3.72;;;;;;;1.08;67.94;100235.39;1736661;80;21058;-59
2022/11/23 07:06:25;;;;;;;8.08;3.25;;;;;;;1.10;67.81;100240.05;1738265;80;21054;-59
2022/11/23 07:08:55;;;;;;;9.38;3.55;;;;;;;1.10;67.79;100231.81;1724529;81;21096;-59
2022/11/23 07:11:23;;;;;;;9.60;4.15;;;;;;;1.19;67.97;100235.75;1735589;80;21142;-59
2022/11/23 07:13:49;;;;;;;11.30;3.62;;;;;;;1.30;67.92;100240.48;1738589;81;20950;-59
2022/11/23 07:16:16;;;;;;;11.40;4.92;;;;;;;1.37;67.68;100239.76;1738565;80;21116;-59
2022/11/23 07:18:44;;;;;;;11.63;3.95;;;;;;;1.37;67.56;100228.09;1742137;80;21081;-59
2022/11/23 07:21:10;;;;;;;8.15;3.60;;;;;;;1.40;67.20;100243.52;1746633;81;21086;-60
2022/11/23 07:23:40;;;;;;;11.33;3.98;;;;;;;1.40;67.14;100243.52;1738001;80;21296;-61
2022/11/23 07:26:08;;;;;;;9.78;4.90;;;;;;;1.39;67.19;100241.82;1740848;80;21491;-60
2022/11/23 07:28:35;;;;;;;9.95;4.85;;;;;;;1.38;67.26;100252.66;1729787;80;21481;-60
2022/11/23 07:31:02;;;;;;;10.28;5.08;;;;;;;1.38;67.27;100264.75;1721716;81;21023;-60
2022/11/23 07:33:31;;;;;;;8.60;3.33;;;;;;;1.34;67.29;100252.39;1726553;81;21098;-60
2022/11/23 07:36:03;;;;;;;10.95;5.53;;;;;;;1.36;67.43;100253.62;1718183;80;21936;-60
2022/11/23 07:38:30;;;;;;;9.58;4.45;;;;;;;1.34;67.42;100245.91;1723312;82;21032;-59
2022/11/23 07:41:00;;;;;;;10.28;5.10;;;;;;;1.40;67.64;100246.11;1716926;81;21067;-59
2022/11/23 07:43:32;;;;;;;7.80;3.60;;;;;;;1.44;67.51;100249.77;1713916;81;21576;-59
2022/11/23 07:45:58;;;;;;;13.05;4.75;;;;;;;1.51;67.45;100257.29;1712598;82;21140;-59
2022/11/23 07:48:25;;;;;;;8.75;4.33;;;;;;;1.53;67.38;100263.24;1722893;81;21264;-60
2022/11/23 07:50:53;;;;;;;8.30;3.15;;;;;;;1.58;67.19;100264.74;1726436;82;21079;-60
2022/11/23 07:53:19;;;;;;;9.93;4.25;;;;;;;1.57;67.18;100266.94;1726293;81;21095;-60
2022/11/23 07:55:46;;;;;;;10.10;4.75;;;;;;;1.55;67.06;100275.70;1721678;81;21008;-60
2022/11/23 07:58:13;;;;;;;12.90;6.05;;;;;;;1.48;67.21;100271.25;1719680;81;21027;-60
2022/11/23 08:00:41;;;;;;;9.65;5.65;;;;;;;1.35;67.61;100277.87;1726685;82;21278;-60
2022/11/23 08:03:10;;;;;;;13.25;6.17;;;;;;;1.28;67.81;100282.48;1715802;82;21063;-60
2022/11/23 08:05:37;;;;;;;15.18;6.65;;;;;;;1.35;67.86;100271.40;1726242;81;21056;-61
2022/11/23 08:08:04;;;;;;;12.78;5.50;;;;;;;1.32;68.02;100272.82;1718935;81;21270;-61
2022/11/23 08:10:32;;;;;;;14.10;7.08;;;;;;;1.37;68.13;100279.48;1727717;81;21107;-61
2022/11/23 08:13:00;;;;;;;16.90;6.33;;;;;;;1.32;68.32;100283.19;1726598;81;21226;-61
2022/11/23 08:15:28;;;;;;;10.38;5.28;;;;;;;1.32;68.48;100285.32;1726624;82;20922;-61
2022/11/23 08:17:59;;;;;;;12.70;6.83;;;;;;;1.36;68.69;100284.73;1722331;81;20965;-61
2022/11/23 08:20:26;;;;;;;12.65;5.75;;;;;;;1.50;68.56;100287.58;1709897;82;20955;-61
2022/11/23 08:22:56;;;;;;;12.18;4.58;;;;;;;1.53;68.39;100296.95;1721944;82;20924;-61
2022/11/23 08:25:26;;;;;;;15.68;6.75;;;;;;;1.53;68.24;100284.85;1724701;82;21167;-58
2022/11/23 08:28:01;;;;;;;10.63;5.75;;;;;;;1.53;68.36;100296.52;1719771;81;21102;-60
2022/11/23 08:30:29;;;;;;;11.38;5.12;;;;;;;1.53;68.16;100290.04;1741728;82;21083;-59
2022/11/23 08:32:55;;;;;;;10.70;5.30;;;;;;;1.47;68.10;100287.23;1730982;82;21020;-60
2022/11/23 08:35:23;;;;;;;12.58;6.08;;;;;;;1.44;68.06;100284.78;1734029;81;21065;-60
2022/11/23 08:37:49;;;;;;;10.15;4.92;;;;;;;1.40;68.15;100287.59;1716594;81;21112;-60
2022/11/23 08:40:16;;;;;;;10.53;5.22;;;;;;;1.41;68.15;100291.85;1727388;81;21111;-60
2022/11/23 08:42:43;;;;;;;11.65;5.03;;;;;;;1.41;68.02;100294.44;1736460;80;21039;-60
2022/11/23 08:45:10;;;;;;;11.40;4.20;;;;;;;1.38;67.94;100289.38;1713885;82;21114;-61
2022/11/23 08:47:37;;;;;;;14.33;4.80;;;;;;;1.37;68.04;100288.55;1728188;82;21018;-61
2022/11/23 08:50:05;;;;;;;14.30;6.35;;;;;;;1.38;67.84;100286.36;1744258;82;21245;-60
2022/11/23 08:52:32;;;;;;;9.48;4.08;;;;;;;1.37;67.66;100288.55;1736217;82;21059;-61
2022/11/23 08:55:00;;;;;;;10.72;5.17;;;;;;;1.32;67.44;100284.48;1736652;82;21093;-61
2022/11/23 08:57:27;;;;;;;10.75;4.67;;;;;;;1.26;67.29;100282.98;1737677;82;21055;-60
2022/11/23 08:59:54;;;;;;;12.07;4.53;;;;;;;1.24;67.47;100281.75;1734444;80;21429;-61
2022/11/23 09:02:21;;;;;;;9.03;5.35;;;;;;;1.27;67.54;100284.22;1726808;82;21277;-60
2022/11/23 09:04:49;;;;;;;12.78;5.30;;;;;;;1.28;67.54;100280.73;1722234;82;21004;-61
2022/11/23 09:07:16;;;;;;;10.55;5.10;;;;;;;1.28;67.49;100276.84;1737882;82;21056;-61
2022/11/23 09:09:42;;;;;;;13.10;4.42;;;;;;;1.28;67.69;100278.13;1721512;81;21091;-60
2022/11/23 09:12:09;;;;;;;10.43;5.22;;;;;;;1.28;67.64;100270.36;1735444;82;21051;-60
2022/11/23 09:14:35;;;;;;;12.03;6.03;;;;;;;1.28;67.74;100265.17;1730978;82;21240;-60
2022/11/23 09:17:03;;;;;;;11.25;5.70;;;;;;;1.28;67.68;100261.28;1725512;80;21043;-61
2022/11/23 09:19:31;;;;;;;14.03;5.60;;;;;;;1.27;67.60;100267.36;1734040;82;21047;-61
2022/11/23 09:21:57;;;;;;;13.00;6.80;;;;;;;1.28;67.78;100261.28;1730092;82;21440;-60
2022/11/23 09:24:26;;;;;;;13.80;5.80;;;;;;;1.36;68.07;100256.20;1733718;82;21110;-61
2022/11/23 09:26:53;;;;;;;17.82;7.70;;;;;;;1.44;68.04;100260.61;1728454;82;21747;-60
2022/11/23 09:29:20;;;;;;;16.07;7.37;;;;;;;1.44;67.59;100259.31;1736283;81;21004;-61
2022/11/23 09:31:47;;;;;;;13.22;6.28;;;;;;;1.41;67.44;100262.03;1740753;82;21564;-60
2022/11/23 09:34:13;;;;;;;13.95;6.53;;;;;;;1.35;67.80;100249.36;1735363;80;21527;-60
2022/11/23 09:36:40;;;;;;;13.60;6.65;;;;;;;1.39;67.85;100244.41;1736904;82;21061;-60
2022/11/23 09:39:07;;;;;;;14.50;7.03;;;;;;;1.42;68.01;100239.09;1741310;82;21786;-60
2022/11/23 09:41:51;;;;;;;15.25;8.40;;;;;;;1.44;67.99;100230.79;1735108;82;21053;-60
2022/11/23 09:44:41;;;;;;;15.23;8.50;;;;;;;1.45;68.18;100229.89;1746503;82;21139;-60
2022/11/23 09:47:26;;;;;;;16.67;6.90;;;;;;;1.45;67.90;100237.67;1738935;81;21066;-60
2022/11/23 09:50:27;;;;;;;18.23;8.13;;;;;;;1.46;68.07;100234.15;1734445;82;20988;-60
2022/11/23 09:52:54;;;;;;;13.83;6.65;;;;;;;1.44;67.99;100231.62;1739993;80;21869;-60
2022/11/23 09:55:26;;;;;;;16.95;6.70;;;;;;;1.47;67.95;100233.25;1736400;81;21075;-60
2022/11/23 09:57:58;;;;;;;14.20;6.67;;;;;;;1.46;67.93;100235.02;1741324;82;21003;-59
2022/11/23 10:00:25;;;;;;;14.33;6.75;;;;;;;1.47;67.45;100240.56;1742439;82;21024;-60
2022/11/23 10:05:37;;;;;;;15.43;6.33;;;;;;;1.34;67.58;100229.52;1792903;77;22021;-59
2022/11/23 10:08:30;;;;;;;14.75;7.83;;;;;;;1.39;67.32;100244.41;1780097;80;20899;-59
2022/11/23 10:11:05;;;;;;;13.58;5.55;;;;;;;1.40;67.33;100231.84;1777994;79;21230;-60
2022/11/23 10:13:44;;;;;;;14.07;6.60;;;;;;;1.41;67.32;100229.63;1770031;80;21033;-60
2022/11/23 10:16:19;;;;;;;13.65;6.35;;;;;;;1.40;67.16;100234.44;1775788;80;20974;-60
2022/11/23 10:19:21;;;;;;;12.20;5.70;;;;;;;1.39;67.03;100230.16;1768124;80;21358;-60
2022/11/23 10:22:08;;;;;;;12.63;6.28;;;;;;;1.40;67.20;100229.26;1769972;78;20970;-61
2022/11/23 10:24:43;;;;;;;12.73;5.75;;;;;;;1.41;66.83;100227.03;1778485;80;21304;-59
2022/11/23 10:27:15;;;;;;;12.28;7.00;;;;;;;1.40;66.82;100227.96;1776566;80;21018;-59
2022/11/23 10:29:42;;;;;;;14.60;7.05;;;;;;;1.40;66.81;100222.77;1774402;80;20978;-59
2022/11/23 10:32:42;;;;;;;13.13;6.92;;;;;;;1.44;66.84;100215.23;1778160;80;21058;-59
2022/11/23 10:35:14;;;;;;;13.72;6.08;;;;;;;1.47;66.61;100220.28;1773756;80;21076;-60
2022/11/23 10:37:41;;;;;;;13.22;6.97;;;;;;;1.46;66.24;100218.59;1778386;79;21105;-60
2022/11/23 10:40:17;;;;;;;14.60;7.22;;;;;;;1.45;66.00;100218.22;1785353;80;21023;-60
2022/11/23 10:42:57;;;;;;;14.65;6.35;;;;;;;1.44;65.91;100216.06;1773739;80;21737;-60
2022/11/23 10:45:26;;;;;;;12.43;5.62;;;;;;;1.48;65.91;100221.98;1779230;80;21064;-60
2022/11/23 10:48:01;;;;;;;12.85;6.92;;;;;;;1.54;65.75;100232.52;1764552;80;21096;-60
2022/11/23 10:50:32;;;;;;;11.40;6.25;;;;;;;1.53;65.24;100236.87;1778761;80;21108;-60
2022/11/23 10:53:18;;;;;;;12.30;6.87;;;;;;;1.49;64.73;100238.73;1774185;80;21047;-60
2022/11/23 10:56:01;;;;;;;9.88;5.15;;;;;;;1.40;65.02;100230.55;1776582;78;22182;-59
2022/11/23 10:58:34;;;;;;;13.88;5.58;;;;;;;1.44;65.12;100223.01;1771872;80;21090;-60
2022/11/23 11:01:04;;;;;;;12.28;5.58;;;;;;;1.51;65.29;100224.88;1774131;80;21450;-60
2022/11/23 11:03:32;;;;;;;13.03;6.75;;;;;;;1.58;64.90;100225.84;1773835;80;21904;-60
2022/11/23 11:05:59;;;;;;;11.05;5.28;;;;;;;1.60;64.67;100229.20;1771630;80;21019;-60
2022/11/23 11:08:33;;;;;;;12.73;5.95;;;;;;;1.65;64.47;100232.42;1763075;80;21052;-60
2022/11/23 11:11:06;;;;;;;10.60;4.97;;;;;;;1.65;64.25;100223.34;1767642;80;21082;-60
2022/11/23 11:13:42;;;;;;;13.35;6.62;;;;;;;1.64;64.00;100217.76;1752170;80;21347;-60
2022/11/23 11:16:25;;;;;;;18.87;7.00;;;;;;;1.63;64.01;100222.58;1767427;80;21273;-60
2022/11/23 11:18:52;;;;;;;14.55;5.35;;;;;;;1.64;63.59;100229.43;1769120;80;21013;-59
2022/11/23 11:21:29;;;;;;;12.47;6.22;;;;;;;1.59;63.76;100223.61;1760965;80;21051;-60
2022/11/23 11:24:05;;;;;;;12.85;6.45;;;;;;;1.62;63.76;100222.19;1766159;80;21113;-60
2022/11/23 11:26:34;;;;;;;15.13;7.00;;;;;;;1.63;63.65;100219.98;1767624;80;21001;-60
2022/11/23 11:29:03;;;;;;;12.60;5.42;;;;;;;1.65;63.66;100222.52;1771514;79;21250;-60
2022/11/23 11:32:18;;;;;;;12.88;5.55;;;;;;;1.70;63.62;100230.06;1779449;80;21049;-60
2022/11/23 11:34:51;;;;;;;11.93;6.33;;;;;;;1.70;63.41;100229.63;1775901;80;21492;-59
2022/11/23 11:37:43;;;;;;;14.90;5.90;;;;;;;1.77;63.61;100238.80;1776995;79;21049;-60
2022/11/23 11:40:36;;;;;;;12.23;5.67;;;;;;;1.83;63.47;100241.13;1771643;80;21003;-60
2022/11/23 11:43:14;;;;;;;10.72;4.67;;;;;;;1.83;63.23;100229.88;1776490;80;21149;-59
2022/11/23 11:45:47;;;;;;;12.30;7.20;;;;;;;1.87;63.48;100235.33;1770995;79;21127;-60
2022/11/23 11:48:24;;;;;;;12.25;5.78;;;;;;;1.95;63.24;100225.88;1771246;80;21067;-60